createdAt,value
2023-05-21T00:01:32.745Z,19.02
2023-05-21T00:04:00.708Z,18.62
2023-05-21T00:06:28.492Z,18.79
2023-05-21T00:08:56.144Z,18.50
2023-05-21T00:11:24.061Z,18.19
2023-05-21T00:13:51.564Z,18.33
2023-05-21T00:16:20.509Z,18.59
2023-05-21T00:18:49.688Z,18.65
2023-05-21T00:21:17.715Z,18.27
2023-05-21T00:23:45.668Z,18.28
2023-05-21T00:26:13.160Z,18.53
2023-05-21T00:28:40.663Z,18.18
2023-05-21T00:31:08.348Z,18.14
2023-05-21T00:33:37.320Z,18.28
2023-05-21T00:36:06.060Z,18.37
2023-05-21T00:38:33.768Z,18.38
2023-05-21T00:41:02.657Z,18.09
2023-05-21T00:43:30.165Z,17.97
2023-05-21T00:45:58.311Z,18.12
2023-05-21T00:48:26.107Z,18.07
2023-05-21T00:50:56.558Z,17.91
2023-05-21T00:53:24.260Z,17.95
2023-05-21T00:55:52.204Z,18.21
2023-05-21T00:58:19.821Z,18.21
2023-05-21T01:00:48.101Z,18.25
2023-05-21T01:03:16.420Z,18.36
2023-05-21T01:05:45.051Z,18.09
2023-05-21T01:08:14.951Z,18.42
2023-05-21T01:10:42.696Z,18.43
2023-05-21T01:13:10.720Z,18.68
2023-05-21T01:15:39.011Z,18.85
2023-05-21T01:18:07.701Z,18.91
2023-05-21T01:20:35.358Z,18.57
2023-05-21T01:23:04.569Z,18.33
2023-05-21T01:25:32.178Z,18.00
2023-05-21T01:27:59.696Z,18.12
2023-05-21T01:30:27.878Z,18.45
2023-05-21T01:33:03.223Z,18.50
2023-05-21T01:35:34.678Z,18.14
2023-05-21T01:38:10.592Z,17.91
2023-05-21T01:40:46.438Z,17.83
2023-05-21T01:43:15.751Z,17.86
2023-05-21T01:45:44.926Z,17.72
2023-05-21T01:48:13.770Z,17.89
2023-05-21T01:50:43.043Z,18.10
2023-05-21T01:53:11.938Z,17.90
2023-05-21T01:55:42.041Z,17.96
2023-05-21T01:58:09.974Z,18.03
2023-05-21T02:00:37.525Z,17.94
2023-05-21T02:03:05.333Z,18.04
2023-05-21T02:05:32.897Z,18.43
2023-05-21T02:08:01.424Z,18.44
2023-05-21T02:10:30.469Z,18.26
2023-05-21T02:12:59.290Z,18.19
2023-05-21T02:15:27.088Z,17.90
2023-05-21T02:17:55.576Z,18.05
2023-05-21T02:20:24.179Z,17.73
2023-05-21T02:22:51.691Z,17.45
2023-05-21T02:25:20.639Z,17.57
2023-05-21T02:27:52.766Z,17.56
2023-05-21T02:30:20.917Z,17.56
2023-05-21T02:32:49.837Z,17.33
2023-05-21T02:35:17.819Z,17.61
2023-05-21T02:37:45.446Z,17.77
2023-05-21T02:40:13.594Z,17.73
2023-05-21T02:42:41.826Z,17.88
2023-05-21T02:45:12.443Z,17.87
2023-05-21T02:47:40.835Z,18.14
2023-05-21T02:50:09.743Z,17.99
2023-05-21T02:52:37.253Z,18.07
2023-05-21T02:55:05.306Z,17.72
2023-05-21T02:57:32.790Z,17.57
2023-05-21T03:00:00.354Z,17.59
2023-05-21T03:02:30.225Z,17.33
2023-05-21T03:04:58.686Z,17.25
2023-05-21T03:07:26.219Z,17.68
2023-05-21T03:09:53.751Z,17.31
2023-05-21T03:12:21.299Z,17.67
2023-05-21T03:14:51.238Z,17.88
2023-05-21T03:17:18.945Z,17.49
2023-05-21T03:19:49.036Z,17.18
2023-05-21T03:22:16.620Z,16.83
2023-05-21T03:24:45.147Z,17.06
2023-05-21T03:27:12.665Z,17.28
2023-05-21T03:29:40.503Z,16.81
2023-05-21T03:32:08.851Z,17.16
2023-05-21T03:34:36.568Z,16.81
2023-05-21T03:37:05.704Z,16.93
2023-05-21T03:39:33.235Z,17.14
2023-05-21T03:42:00.747Z,16.98
2023-05-21T03:44:29.543Z,16.80
2023-05-21T03:46:57.111Z,16.82
2023-05-21T03:49:24.649Z,17.15
2023-05-21T03:51:52.182Z,17.32
2023-05-21T03:54:21.047Z,16.90
2023-05-21T03:56:48.673Z,17.35
2023-05-21T03:59:16.195Z,16.98
2023-05-21T04:01:45.280Z,17.07
2023-05-21T04:04:12.995Z,17.36
2023-05-21T04:06:42.284Z,17.21
2023-05-21T04:09:09.758Z,17.12
2023-05-21T04:11:38.591Z,17.37
2023-05-21T04:14:06.209Z,17.22
2023-05-21T04:16:35.521Z,17.23
2023-05-21T04:19:03.093Z,17.69
2023-05-21T04:21:31.878Z,18.04
2023-05-21T04:24:00.744Z,17.80
2023-05-21T04:26:29.478Z,17.70
2023-05-21T04:28:59.373Z,17.76
2023-05-21T04:31:26.966Z,17.73
2023-05-21T04:33:54.582Z,17.74
2023-05-21T04:36:22.133Z,17.84
2023-05-21T04:38:49.796Z,17.79
2023-05-21T04:41:18.770Z,18.00
2023-05-21T04:43:46.302Z,17.94
2023-05-21T04:46:15.206Z,18.37
2023-05-21T04:48:42.724Z,19.18
2023-05-21T04:51:10.238Z,19.45
2023-05-21T04:53:38.757Z,20.51
2023-05-21T04:56:07.325Z,20.87
2023-05-21T04:58:34.864Z,20.85
2023-05-21T05:01:03.276Z,21.00
2023-05-21T05:03:32.314Z,21.10
2023-05-21T05:05:59.861Z,21.05
2023-05-21T05:08:27.389Z,21.34
2023-05-21T05:10:54.904Z,21.35
2023-05-21T05:13:22.429Z,20.76
2023-05-21T05:15:51.019Z,20.89
2023-05-21T05:18:19.531Z,21.12
2023-05-21T05:20:48.360Z,21.00
2023-05-21T05:23:16.117Z,20.84
2023-05-21T05:25:43.662Z,20.70
2023-05-21T05:28:11.163Z,20.76
2023-05-21T05:30:38.731Z,20.68
2023-05-21T05:33:06.328Z,20.39
2023-05-21T05:35:33.914Z,20.72
2023-05-21T05:38:03.118Z,20.72
2023-05-21T05:40:30.699Z,20.73
2023-05-21T05:42:58.235Z,20.85
2023-05-21T05:45:26.694Z,21.23
2023-05-21T05:47:54.254Z,21.57
2023-05-21T05:50:22.182Z,22.01
2023-05-21T05:52:49.671Z,22.01
2023-05-21T05:55:18.556Z,22.22
2023-05-21T05:57:46.308Z,22.34
2023-05-21T06:00:14.814Z,22.25
2023-05-21T06:02:42.623Z,21.86
2023-05-21T06:05:11.159Z,22.27
2023-05-21T06:07:39.557Z,22.96
2023-05-21T06:10:07.720Z,22.52
2023-05-21T06:12:36.854Z,22.65
2023-05-21T06:15:04.976Z,22.89
2023-05-21T06:17:32.679Z,22.81
2023-05-21T06:20:00.239Z,23.08
2023-05-21T06:22:27.744Z,23.38
2023-05-21T06:24:55.242Z,24.00
2023-05-21T06:27:22.735Z,23.57
2023-05-21T06:29:51.722Z,23.37
2023-05-21T06:32:21.303Z,24.01
2023-05-21T06:34:48.858Z,24.45
2023-05-21T06:37:20.714Z,23.80
2023-05-21T06:39:48.493Z,23.74
2023-05-21T06:42:16.075Z,23.58
2023-05-21T06:44:43.633Z,23.41
2023-05-21T06:47:12.541Z,22.70
2023-05-21T06:49:40.056Z,23.02
2023-05-21T06:52:07.987Z,23.18
2023-05-21T06:54:35.543Z,22.95
2023-05-21T06:57:03.036Z,23.27
2023-05-21T06:59:30.587Z,23.74
2023-05-21T07:01:58.124Z,24.80
2023-05-21T07:04:26.961Z,25.21
2023-05-21T07:06:54.531Z,25.86
2023-05-21T07:09:22.019Z,26.45
2023-05-21T07:11:49.525Z,26.25
2023-05-21T07:14:17.044Z,25.73
2023-05-21T07:16:44.647Z,25.34
2023-05-21T07:19:12.181Z,24.89
2023-05-21T07:21:41.021Z,24.19
2023-05-21T07:24:08.549Z,24.42
2023-05-21T07:26:36.079Z,24.30
2023-05-21T07:29:03.599Z,24.23
2023-05-21T07:31:31.203Z,24.11
2023-05-21T07:33:58.717Z,23.81
2023-05-21T07:36:27.165Z,24.07
2023-05-21T07:38:56.258Z,24.62
2023-05-21T07:41:23.761Z,24.50
2023-05-21T07:43:51.421Z,24.44
2023-05-21T07:46:18.946Z,24.69
2023-05-21T07:48:46.530Z,25.33
2023-05-21T07:51:14.056Z,25.22
2023-05-21T07:53:41.623Z,24.42
2023-05-21T07:56:10.718Z,24.56
2023-05-21T07:58:38.248Z,25.00
2023-05-21T08:01:06.217Z,24.96
2023-05-21T08:03:33.918Z,25.54
2023-05-21T08:06:01.712Z,25.72
2023-05-21T08:08:29.234Z,26.28
2023-05-21T08:10:57.066Z,26.48
2023-05-21T08:13:25.946Z,25.97
2023-05-21T08:15:53.827Z,25.96
2023-05-21T08:18:23.716Z,25.64
2023-05-21T08:20:51.649Z,25.49
2023-05-21T08:23:19.162Z,25.38
2023-05-21T08:25:46.790Z,25.86
2023-05-21T08:28:14.359Z,26.49
2023-05-21T08:30:43.211Z,26.33
2023-05-21T08:33:10.785Z,26.28
2023-05-21T08:35:38.574Z,26.64
2023-05-21T08:38:06.304Z,27.56
2023-05-21T08:40:34.078Z,27.79
2023-05-21T08:43:02.162Z,27.81
2023-05-21T08:45:37.759Z,28.55
2023-05-21T08:48:09.897Z,28.69
2023-05-21T08:50:37.530Z,28.85
2023-05-21T08:53:15.818Z,28.57
2023-05-21T08:55:57.083Z,28.23
2023-05-21T08:58:24.832Z,28.31
2023-05-21T09:00:52.427Z,28.01
2023-05-21T09:03:22.306Z,28.76
2023-05-21T09:05:51.146Z,29.17
2023-05-21T09:08:20.467Z,29.55
2023-05-21T09:10:51.211Z,29.20
2023-05-21T09:13:19.439Z,28.70
2023-05-21T09:15:47.897Z,28.35
2023-05-21T09:18:15.616Z,28.03
2023-05-21T09:20:45.324Z,28.21
2023-05-21T09:23:16.927Z,28.11
2023-05-21T09:25:47.435Z,28.12
2023-05-21T09:28:16.409Z,28.44
2023-05-21T09:30:47.586Z,29.17
2023-05-21T09:33:25.927Z,29.15
2023-05-21T09:35:55.068Z,29.62
2023-05-21T09:38:23.618Z,29.05
2023-05-21T09:40:51.221Z,29.16
2023-05-21T09:43:19.226Z,29.94
2023-05-21T09:45:53.556Z,29.54
2023-05-21T09:48:35.466Z,28.95
2023-05-21T09:51:12.726Z,29.15
2023-05-21T09:53:52.232Z,28.71
2023-05-21T09:56:24.829Z,27.99
2023-05-21T09:58:54.578Z,28.07
2023-05-21T10:01:22.410Z,28.40
2023-05-21T10:03:54.899Z,28.03
2023-05-21T10:06:25.794Z,28.45
2023-05-21T10:08:55.890Z,28.68
2023-05-21T10:11:26.374Z,28.62
2023-05-21T10:13:58.699Z,28.72
2023-05-21T10:16:26.624Z,28.59
2023-05-21T10:18:57.561Z,28.71
2023-05-21T10:21:27.782Z,29.17
2023-05-21T10:23:57.346Z,29.48
2023-05-21T10:26:26.339Z,29.79
2023-05-21T10:28:55.997Z,29.87
2023-05-21T10:31:24.013Z,30.37
2023-05-21T10:33:54.133Z,30.71
2023-05-21T10:36:21.887Z,31.48
2023-05-21T10:38:50.775Z,30.76
2023-05-21T10:41:20.956Z,29.65
2023-05-21T10:44:05.502Z,29.89
2023-05-21T10:47:06.968Z,30.47
2023-05-21T10:50:00.083Z,30.36
2023-05-21T10:52:40.117Z,30.15
2023-05-21T10:55:24.314Z,29.56
2023-05-21T10:58:13.239Z,29.55
2023-05-21T11:00:40.959Z,28.87
2023-05-21T11:03:09.424Z,28.52
2023-05-21T11:05:42.029Z,28.23
2023-05-21T11:08:23.214Z,28.55
2023-05-21T11:10:57.837Z,28.91
2023-05-21T11:13:26.426Z,29.39
2023-05-21T11:16:07.965Z,29.82
2023-05-21T11:19:01.128Z,30.43
2023-05-21T11:21:34.678Z,29.83
2023-05-21T11:24:04.468Z,28.78
2023-05-21T11:27:04.636Z,28.53
2023-05-21T11:29:41.314Z,28.44
2023-05-21T11:32:10.162Z,28.54
2023-05-21T11:34:39.613Z,28.59
2023-05-21T11:37:30.519Z,28.51
2023-05-21T11:39:59.618Z,29.07
2023-05-21T11:42:36.199Z,28.98
2023-05-21T11:45:04.772Z,28.53
2023-05-21T11:47:33.108Z,28.07
2023-05-21T11:50:01.883Z,28.27
2023-05-21T11:52:30.397Z,28.77
2023-05-21T11:54:59.850Z,29.49
2023-05-21T11:57:31.022Z,30.27
2023-05-21T12:00:01.637Z,30.00
2023-05-21T12:02:33.243Z,29.29
2023-05-21T12:05:01.131Z,28.87
2023-05-21T12:07:31.185Z,29.12
2023-05-21T12:09:59.409Z,29.36
2023-05-21T12:12:33.084Z,29.70
2023-05-21T12:15:13.162Z,29.82
2023-05-21T12:17:41.082Z,29.47
2023-05-21T12:20:10.681Z,28.82
2023-05-21T12:22:43.916Z,28.80
2023-05-21T12:25:12.308Z,29.09
2023-05-21T12:27:42.010Z,29.09
2023-05-21T12:30:11.473Z,29.41
2023-05-21T12:32:42.760Z,29.37
2023-05-21T12:35:10.921Z,29.03
2023-05-21T12:37:38.507Z,28.96
2023-05-21T12:40:08.894Z,29.41
2023-05-21T12:42:40.004Z,29.86
2023-05-21T12:45:08.917Z,30.38
2023-05-21T12:47:38.443Z,30.84
2023-05-21T12:50:11.733Z,30.96
2023-05-21T12:52:41.123Z,30.68
2023-05-21T12:55:10.398Z,30.65
2023-05-21T12:57:39.393Z,30.72
2023-05-21T13:00:08.873Z,30.25
2023-05-21T13:02:40.371Z,30.03
2023-05-21T13:05:09.537Z,29.70
2023-05-21T13:07:38.504Z,29.78
2023-05-21T13:10:08.160Z,29.08
2023-05-21T13:12:35.754Z,29.17
2023-05-21T13:15:05.399Z,29.79
2023-05-21T13:17:33.282Z,29.53
2023-05-21T13:20:10.205Z,29.52
2023-05-21T13:22:42.216Z,29.20
2023-05-21T13:25:10.974Z,29.24
2023-05-21T13:27:38.830Z,29.76
2023-05-21T13:30:07.664Z,30.22
2023-05-21T13:32:35.558Z,30.24
2023-05-21T13:35:03.137Z,30.69
2023-05-21T13:37:32.202Z,30.80
2023-05-21T13:39:59.694Z,30.77
2023-05-21T13:42:27.183Z,30.42
2023-05-21T13:44:54.685Z,30.37
2023-05-21T13:47:22.213Z,30.27
2023-05-21T13:49:49.708Z,30.70
2023-05-21T13:52:17.257Z,29.97
2023-05-21T13:54:46.131Z,29.45
2023-05-21T13:57:13.818Z,29.32
2023-05-21T13:59:41.605Z,28.92
2023-05-21T14:02:10.305Z,29.00
2023-05-21T14:04:39.301Z,28.87
2023-05-21T14:07:07.699Z,29.23
2023-05-21T14:09:35.772Z,29.33
2023-05-21T14:12:06.424Z,29.53
2023-05-21T14:14:34.329Z,29.67
2023-05-21T14:17:01.913Z,29.80
2023-05-21T14:19:29.559Z,29.26
2023-05-21T14:21:57.667Z,29.56
2023-05-21T14:24:25.162Z,29.89
2023-05-21T14:26:52.675Z,29.89
2023-05-21T14:29:21.521Z,29.96
2023-05-21T14:31:49.083Z,29.62
2023-05-21T14:34:16.632Z,29.93
2023-05-21T14:36:44.132Z,29.89
2023-05-21T14:39:11.631Z,29.89
2023-05-21T14:41:39.724Z,30.75
2023-05-21T14:44:07.530Z,31.50
2023-05-21T14:46:36.776Z,31.40
2023-05-21T14:49:04.426Z,31.20
2023-05-21T14:51:32.368Z,30.32
2023-05-21T14:53:59.909Z,30.19
2023-05-21T14:56:28.088Z,30.08
2023-05-21T14:58:55.843Z,29.91
2023-05-21T15:01:23.479Z,30.08
2023-05-21T15:03:52.523Z,30.40
2023-05-21T15:06:20.072Z,30.31
2023-05-21T15:08:47.603Z,30.18
2023-05-21T15:11:15.113Z,30.25
2023-05-21T15:13:42.617Z,29.82
2023-05-21T15:16:10.141Z,29.73
2023-05-21T15:18:37.723Z,29.81
2023-05-21T15:21:07.118Z,29.39
2023-05-21T15:23:34.622Z,29.64
2023-05-21T15:26:02.117Z,29.73
2023-05-21T15:28:29.612Z,30.29
2023-05-21T15:30:57.247Z,30.14
2023-05-21T15:33:24.737Z,30.32
2023-05-21T15:35:52.282Z,30.48
2023-05-21T15:38:21.109Z,30.25
2023-05-21T15:40:48.636Z,30.33
2023-05-21T15:43:16.192Z,30.31
2023-05-21T15:45:43.708Z,30.47
2023-05-21T15:48:12.348Z,29.71
2023-05-21T15:50:40.032Z,29.62
2023-05-21T15:53:07.539Z,29.15
2023-05-21T15:55:36.494Z,29.37
2023-05-21T15:58:04.598Z,29.20
2023-05-21T16:00:32.105Z,29.25
2023-05-21T16:02:59.724Z,29.54
2023-05-21T16:05:27.430Z,29.83
2023-05-21T16:07:54.921Z,29.88
2023-05-21T16:10:22.889Z,29.58
2023-05-21T16:12:51.759Z,29.51
2023-05-21T16:15:19.265Z,29.09
2023-05-21T16:17:47.149Z,28.99
2023-05-21T16:20:14.956Z,29.15
2023-05-21T16:22:42.450Z,29.43
2023-05-21T16:25:10.425Z,28.76
2023-05-21T16:27:37.931Z,28.74
2023-05-21T16:30:08.340Z,28.93
2023-05-21T16:32:35.939Z,28.70
2023-05-21T16:35:03.659Z,28.93
2023-05-21T16:37:31.140Z,29.27
2023-05-21T16:39:58.669Z,29.83
2023-05-21T16:42:26.391Z,30.18
2023-05-21T16:44:53.910Z,30.33
2023-05-21T16:47:22.822Z,30.24
2023-05-21T16:49:50.330Z,30.16
2023-05-21T16:52:17.824Z,30.13
2023-05-21T16:54:48.635Z,30.18
2023-05-21T16:57:16.415Z,30.33
2023-05-21T16:59:44.410Z,29.88
2023-05-21T17:02:13.382Z,30.05
2023-05-21T17:04:42.301Z,29.65
2023-05-21T17:07:09.840Z,29.61
2023-05-21T17:09:37.370Z,29.63
2023-05-21T17:12:05.441Z,29.62
2023-05-21T17:14:34.849Z,29.45
2023-05-21T17:17:02.527Z,29.75
2023-05-21T17:19:30.179Z,29.98
2023-05-21T17:21:59.277Z,29.94
2023-05-21T17:24:26.777Z,29.81
2023-05-21T17:26:54.567Z,30.18
2023-05-21T17:29:22.074Z,30.52
2023-05-21T17:31:49.722Z,30.64
2023-05-21T17:34:17.954Z,30.63
2023-05-21T17:36:45.493Z,30.31
2023-05-21T17:39:14.361Z,30.05
2023-05-21T17:41:41.899Z,30.16
2023-05-21T17:44:11.320Z,30.42
2023-05-21T17:46:38.855Z,30.41
2023-05-21T17:49:07.399Z,30.47
2023-05-21T17:51:35.014Z,29.99
2023-05-21T17:54:02.546Z,29.50
2023-05-21T17:56:34.241Z,29.35
2023-05-21T17:59:01.734Z,29.21
2023-05-21T18:01:29.382Z,29.10
2023-05-21T18:03:57.038Z,28.47
2023-05-21T18:06:26.138Z,27.90
2023-05-21T18:08:53.638Z,27.63
2023-05-21T18:11:21.470Z,27.32
2023-05-21T18:13:50.449Z,26.80
2023-05-21T18:16:18.519Z,26.52
2023-05-21T18:18:46.134Z,26.46
2023-05-21T18:21:14.018Z,26.40
2023-05-21T18:23:41.540Z,26.39
2023-05-21T18:26:09.061Z,26.24
2023-05-21T18:28:36.612Z,26.07
2023-05-21T18:31:05.587Z,25.42
2023-05-21T18:33:33.071Z,25.20
2023-05-21T18:36:00.577Z,25.04
2023-05-21T18:38:28.233Z,25.17
2023-05-21T18:40:55.757Z,25.02
2023-05-21T18:43:23.281Z,25.08
2023-05-21T18:45:50.815Z,24.94
2023-05-21T18:48:19.622Z,24.76
2023-05-21T18:50:47.124Z,24.60
2023-05-21T18:53:14.621Z,24.31
2023-05-21T18:55:42.369Z,24.05
2023-05-21T18:58:10.077Z,23.89
2023-05-21T19:00:39.424Z,23.69
2023-05-21T19:03:07.137Z,23.34
2023-05-21T19:05:37.749Z,22.95
2023-05-21T19:08:05.899Z,22.94
2023-05-21T19:10:33.418Z,22.78
2023-05-21T19:13:00.995Z,22.64
2023-05-21T19:15:28.493Z,22.51
2023-05-21T19:17:56.016Z,22.29
2023-05-21T19:20:24.774Z,22.20
2023-05-21T19:22:53.815Z,22.02
2023-05-21T19:25:21.452Z,21.92
2023-05-21T19:27:49.008Z,21.97
2023-05-21T19:30:16.674Z,21.70
2023-05-21T19:32:44.211Z,21.52
2023-05-21T19:35:12.071Z,21.20
2023-05-21T19:37:39.782Z,21.34
2023-05-21T19:40:10.185Z,21.40
2023-05-21T19:42:37.777Z,21.25
2023-05-21T19:45:09.279Z,21.17
2023-05-21T19:47:36.936Z,20.83
2023-05-21T19:50:05.061Z,20.94
2023-05-21T19:52:32.588Z,20.79
2023-05-21T19:55:04.434Z,20.53
2023-05-21T19:57:33.361Z,20.29
2023-05-21T20:00:00.906Z,20.56
2023-05-21T20:02:29.134Z,20.47
2023-05-21T20:04:58.698Z,20.65
2023-05-21T20:07:26.203Z,20.54
2023-05-21T20:09:53.706Z,20.50
2023-05-21T20:12:21.192Z,20.46
2023-05-21T20:14:50.076Z,20.25
2023-05-21T20:17:18.811Z,20.18
2023-05-21T20:19:47.930Z,20.06
2023-05-21T20:22:15.963Z,19.89
2023-05-21T20:24:43.726Z,19.71
2023-05-21T20:27:11.252Z,19.89
2023-05-21T20:29:38.767Z,20.45
2023-05-21T20:32:08.183Z,20.75
2023-05-21T20:37:05.155Z,20.35
2023-05-21T20:39:32.652Z,20.78
2023-05-21T20:42:00.986Z,20.77
2023-05-21T20:44:29.237Z,20.72
2023-05-21T20:46:56.857Z,20.66
2023-05-21T20:49:25.866Z,20.62
2023-05-21T20:51:56.673Z,20.70
2023-05-21T20:54:24.316Z,20.62
2023-05-21T20:56:54.800Z,20.55
2023-05-21T20:59:22.277Z,20.32
2023-05-21T21:01:50.787Z,20.20
2023-05-21T21:04:18.973Z,20.13
2023-05-21T21:06:48.235Z,19.86
2023-05-21T21:09:15.708Z,19.65
2023-05-21T21:11:43.236Z,19.56
2023-05-21T21:14:13.828Z,19.54
2023-05-21T21:16:41.529Z,19.48
2023-05-21T21:19:09.151Z,19.20
2023-05-21T21:21:36.755Z,19.36
2023-05-21T21:24:06.724Z,18.67
2023-05-21T21:26:34.239Z,18.74
2023-05-21T21:29:01.745Z,19.07
2023-05-21T21:31:30.083Z,19.06
2023-05-21T21:33:57.822Z,18.97
2023-05-21T21:36:25.454Z,19.18
2023-05-21T21:38:52.943Z,19.12
2023-05-21T21:41:22.409Z,19.59
2023-05-21T21:43:51.566Z,19.61
2023-05-21T21:46:19.361Z,19.58
2023-05-21T21:48:46.888Z,19.81
2023-05-21T21:51:15.557Z,19.81
2023-05-21T21:53:43.062Z,19.75
2023-05-21T21:56:10.974Z,19.72
2023-05-21T21:58:39.824Z,19.40
2023-05-21T22:01:07.440Z,19.07
2023-05-21T22:03:35.201Z,18.61
2023-05-21T22:06:02.927Z,18.48
2023-05-21T22:08:30.397Z,18.72
2023-05-21T22:10:58.814Z,18.60
2023-05-21T22:13:28.501Z,18.85
2023-05-21T22:15:58.315Z,18.84
2023-05-21T22:18:39.682Z,18.93
2023-05-21T22:21:09.285Z,18.79
2023-05-21T22:23:37.264Z,18.65
2023-05-21T22:26:04.909Z,18.62
2023-05-21T22:28:32.422Z,18.77
2023-05-21T22:31:01.302Z,18.83
2023-05-21T22:33:29.127Z,18.96
2023-05-21T22:35:56.748Z,18.70
2023-05-21T22:38:24.336Z,18.65
2023-05-21T22:40:51.856Z,19.12
2023-05-21T22:43:19.409Z,19.00
2023-05-21T22:45:46.938Z,19.03
2023-05-21T22:48:18.119Z,18.99
2023-05-21T22:50:46.093Z,19.10
2023-05-21T22:53:13.838Z,19.19
2023-05-21T22:55:41.366Z,19.15
2023-05-21T22:58:08.901Z,19.02
2023-05-21T23:00:37.215Z,19.09
2023-05-21T23:03:05.247Z,18.91
2023-05-21T23:05:34.265Z,19.13
2023-05-21T23:08:01.839Z,19.17
2023-05-21T23:10:29.335Z,19.21
2023-05-21T23:12:56.855Z,19.13
2023-05-21T23:15:24.364Z,18.92
2023-05-21T23:17:51.907Z,18.59
2023-05-21T23:20:21.568Z,18.54
2023-05-21T23:22:50.434Z,18.43
2023-05-21T23:25:18.114Z,18.41
2023-05-21T23:27:45.850Z,18.61
2023-05-21T23:30:13.751Z,18.48
2023-05-21T23:32:41.320Z,18.48
2023-05-21T23:35:10.347Z,18.43
2023-05-21T23:37:37.862Z,18.34
2023-05-21T23:40:08.329Z,18.07
2023-05-21T23:42:36.023Z,18.37
2023-05-21T23:45:03.634Z,18.23
2023-05-21T23:47:31.135Z,18.10
2023-05-21T23:49:58.624Z,17.70
2023-05-21T23:52:26.319Z,17.02
2023-05-21T23:54:53.819Z,17.28
2023-05-21T23:57:22.646Z,17.18
2023-05-21T23:59:50.160Z,17.24
